createdAt,value
2022-12-31T00:00:49.251Z,15.32
2022-12-31T00:03:17.543Z,10.18
2022-12-31T00:05:45.100Z,13.80
2022-12-31T00:08:12.636Z,14.77
2022-12-31T00:10:41.929Z,13.35
2022-12-31T00:13:13.401Z,10.35
2022-12-31T00:15:42.654Z,10.65
2022-12-31T00:18:10.875Z,13.68
2022-12-31T00:20:42.133Z,15.93
2022-12-31T00:23:10.735Z,15.57
2022-12-31T00:25:38.172Z,16.92
2022-12-31T00:28:05.662Z,12.10
2022-12-31T00:30:34.434Z,15.50
2022-12-31T00:33:01.954Z,13.00
2022-12-31T00:35:29.607Z,17.30
2022-12-31T00:37:57.233Z,14.77
2022-12-31T00:40:25.007Z,11.82
2022-12-31T00:42:52.461Z,17.60
2022-12-31T00:45:19.983Z,14.90
2022-12-31T00:47:47.475Z,13.00
2022-12-31T00:50:15.024Z,14.75
2022-12-31T00:52:42.454Z,12.48
2022-12-31T00:55:10.163Z,16.67
2022-12-31T00:57:37.649Z,14.27
2022-12-31T01:00:07.618Z,12.30
2022-12-31T01:02:35.516Z,17.55
2022-12-31T01:05:03.553Z,16.67
2022-12-31T01:07:31.120Z,16.48
2022-12-31T01:09:58.754Z,15.73
2022-12-31T01:12:26.369Z,17.88
2022-12-31T01:14:54.016Z,14.30
2022-12-31T01:17:21.521Z,21.73
2022-12-31T01:19:48.988Z,20.63
2022-12-31T01:22:16.616Z,12.65
2022-12-31T01:24:44.296Z,20.58
2022-12-31T01:27:11.914Z,18.20
2022-12-31T01:29:39.533Z,13.07
2022-12-31T01:32:06.964Z,13.40
2022-12-31T01:34:34.386Z,15.55
2022-12-31T01:37:01.890Z,22.05
2022-12-31T01:39:29.417Z,22.13
2022-12-31T01:41:58.070Z,16.40
2022-12-31T01:44:25.450Z,16.25
2022-12-31T01:47:00.431Z,23.65
2022-12-31T01:49:39.511Z,13.95
2022-12-31T01:52:12.407Z,14.63
2022-12-31T01:54:46.830Z,17.75
2022-12-31T01:57:14.960Z,18.35
2022-12-31T01:59:43.747Z,15.20
2022-12-31T02:02:12.863Z,25.13
2022-12-31T02:04:40.640Z,19.58
2022-12-31T02:07:09.913Z,16.60
2022-12-31T02:09:39.846Z,13.23
2022-12-31T02:12:09.544Z,9.68
2022-12-31T02:14:40.737Z,17.23
2022-12-31T02:17:34.028Z,14.85
2022-12-31T02:20:31.110Z,16.08
2022-12-31T02:23:10.842Z,14.07
2022-12-31T02:26:08.821Z,10.93
2022-12-31T02:29:11.775Z,11.25
2022-12-31T02:31:47.154Z,15.23
2022-12-31T02:34:25.575Z,12.77
2022-12-31T02:36:55.974Z,11.98
2022-12-31T02:39:23.670Z,10.88
2022-12-31T02:41:52.376Z,7.93
2022-12-31T02:44:29.293Z,11.57
2022-12-31T02:47:34.080Z,17.27
2022-12-31T02:50:27.889Z,12.95
2022-12-31T02:53:14.300Z,13.88
2022-12-31T02:55:54.850Z,12.05
2022-12-31T02:58:45.402Z,14.00
2022-12-31T03:01:36.164Z,9.73
2022-12-31T03:04:25.431Z,9.65
2022-12-31T03:06:53.904Z,9.55
2022-12-31T03:09:21.557Z,10.77
2022-12-31T03:12:07.951Z,13.63
2022-12-31T03:14:35.448Z,9.60
2022-12-31T03:17:02.915Z,9.23
2022-12-31T03:19:49.414Z,9.63
2022-12-31T03:22:29.285Z,8.23
2022-12-31T03:25:28.002Z,5.68
2022-12-31T03:27:57.146Z,7.22
2022-12-31T03:30:25.360Z,7.13
2022-12-31T03:32:53.975Z,4.43
2022-12-31T03:35:22.682Z,5.80
2022-12-31T03:37:51.355Z,3.50
2022-12-31T03:40:20.884Z,3.63
2022-12-31T03:42:48.375Z,1.27
2022-12-31T03:45:16.118Z,3.25
2022-12-31T03:47:43.875Z,1.85
2022-12-31T03:50:13.383Z,0.50
2022-12-31T03:52:41.196Z,0.40
2022-12-31T03:55:09.824Z,1.73
2022-12-31T03:57:38.637Z,3.17
2022-12-31T04:00:09.506Z,1.13
2022-12-31T04:02:37.387Z,0.38
2022-12-31T04:05:05.316Z,2.05
2022-12-31T04:07:32.785Z,0.95
2022-12-31T04:10:00.389Z,0.30
2022-12-31T04:12:27.817Z,1.55
2022-12-31T04:14:55.246Z,0.52
2022-12-31T04:17:22.700Z,0.75
2022-12-31T04:19:50.065Z,0.80
2022-12-31T04:22:17.787Z,0.90
2022-12-31T04:24:45.858Z,0.50
2022-12-31T04:27:14.164Z,0.28
2022-12-31T04:29:41.664Z,1.52
2022-12-31T04:32:10.319Z,2.40
2022-12-31T04:34:37.796Z,0.95
2022-12-31T04:37:05.328Z,4.10
2022-12-31T04:39:32.881Z,4.18
2022-12-31T04:42:00.263Z,2.90
2022-12-31T04:44:27.725Z,2.47
2022-12-31T04:46:55.287Z,4.90
2022-12-31T04:49:22.703Z,3.45
2022-12-31T04:51:50.219Z,5.57
2022-12-31T04:54:17.600Z,5.45
2022-12-31T04:56:45.038Z,6.38
2022-12-31T04:59:12.953Z,7.80
2022-12-31T05:01:40.680Z,8.85
2022-12-31T05:04:08.173Z,13.70
2022-12-31T05:06:35.655Z,17.77
2022-12-31T05:09:03.428Z,18.50
2022-12-31T05:11:30.954Z,15.25
2022-12-31T05:13:58.510Z,14.48
2022-12-31T05:16:26.320Z,17.67
2022-12-31T05:18:55.559Z,17.35
2022-12-31T05:21:23.030Z,27.85
2022-12-31T05:23:50.535Z,13.52
2022-12-31T05:26:18.013Z,14.05
2022-12-31T05:28:45.579Z,12.02
2022-12-31T05:31:13.061Z,16.50
2022-12-31T05:33:41.044Z,9.93
2022-12-31T05:36:08.560Z,13.15
2022-12-31T05:38:37.668Z,10.57
2022-12-31T05:41:07.626Z,13.30
2022-12-31T05:43:35.365Z,12.82
2022-12-31T05:46:04.479Z,7.88
2022-12-31T05:48:32.520Z,9.85
2022-12-31T05:51:00.426Z,9.15
2022-12-31T05:53:27.949Z,10.23
2022-12-31T05:55:55.541Z,9.02
2022-12-31T05:58:23.078Z,11.15
2022-12-31T06:00:52.203Z,12.27
2022-12-31T06:03:19.753Z,14.60
2022-12-31T06:05:47.317Z,17.80
2022-12-31T06:08:14.888Z,14.05
2022-12-31T06:10:42.618Z,23.30
2022-12-31T06:13:10.362Z,15.15
2022-12-31T06:15:39.814Z,15.82
2022-12-31T06:18:07.640Z,17.90
2022-12-31T06:20:38.895Z,21.65
2022-12-31T06:23:07.078Z,21.10
2022-12-31T06:25:38.025Z,14.02
2022-12-31T06:28:06.731Z,24.08
2022-12-31T06:30:34.591Z,17.48
2022-12-31T06:33:02.168Z,25.17
2022-12-31T06:35:29.807Z,20.35
2022-12-31T06:37:57.231Z,21.02
2022-12-31T06:40:24.976Z,41.17
2022-12-31T06:42:59.475Z,21.10
2022-12-31T06:45:28.490Z,21.83
2022-12-31T06:47:56.082Z,18.95
2022-12-31T06:50:24.127Z,21.35
2022-12-31T06:52:51.551Z,26.98
2022-12-31T06:55:19.349Z,21.67
2022-12-31T06:57:47.200Z,25.73
2022-12-31T07:00:15.417Z,20.45
2022-12-31T07:03:15.211Z,24.50
2022-12-31T07:06:03.869Z,16.52
2022-12-31T07:08:39.376Z,24.80
2022-12-31T07:11:20.504Z,21.30
2022-12-31T07:16:55.169Z,22.42
2022-12-31T07:19:28.683Z,13.75
2022-12-31T07:21:58.599Z,18.55
2022-12-31T07:24:26.572Z,14.52
2022-12-31T07:27:26.601Z,16.90
2022-12-31T07:30:09.731Z,17.17
2022-12-31T07:33:00.642Z,15.30
2022-12-31T07:38:37.987Z,20.23
2022-12-31T07:43:39.226Z,19.83
2022-12-31T07:46:35.797Z,17.45
2022-12-31T07:49:04.604Z,20.65
2022-12-31T07:51:32.423Z,30.23
2022-12-31T07:53:59.979Z,24.15
2022-12-31T07:56:27.455Z,30.92
2022-12-31T07:59:33.723Z,23.48
2022-12-31T08:02:01.277Z,26.20
2022-12-31T08:05:03.644Z,23.25
2022-12-31T08:07:43.536Z,19.10
2022-12-31T08:10:36.150Z,20.10
2022-12-31T08:13:09.228Z,20.48
2022-12-31T08:15:41.435Z,16.45
2022-12-31T08:18:09.352Z,17.02
2022-12-31T08:20:55.388Z,20.27
2022-12-31T08:24:07.321Z,18.95
2022-12-31T08:26:53.241Z,26.48
2022-12-31T08:29:41.166Z,29.77
2022-12-31T08:32:22.800Z,23.27
2022-12-31T08:35:17.043Z,29.63
2022-12-31T08:38:13.402Z,22.10
2022-12-31T08:40:59.455Z,24.23
2022-12-31T08:43:32.799Z,26.05
2022-12-31T08:46:00.855Z,27.60
2022-12-31T08:48:39.441Z,23.23
2022-12-31T08:51:13.082Z,31.58
2022-12-31T08:53:41.241Z,25.75
2022-12-31T08:56:22.283Z,23.92
2022-12-31T09:01:25.123Z,27.85
2022-12-31T09:03:55.643Z,27.50
2022-12-31T09:06:34.388Z,23.90
2022-12-31T09:09:13.206Z,26.92
2022-12-31T09:11:51.434Z,26.75
2022-12-31T09:14:21.610Z,22.95
2022-12-31T09:17:01.774Z,24.90
2022-12-31T09:19:29.361Z,28.80
2022-12-31T09:21:57.024Z,28.42
2022-12-31T09:24:24.947Z,26.45
2022-12-31T09:27:25.438Z,20.73
2022-12-31T09:30:14.456Z,26.27
2022-12-31T09:33:06.634Z,29.67
2022-12-31T09:35:58.038Z,30.65
2022-12-31T09:38:34.299Z,26.70
2022-12-31T09:41:13.893Z,30.10
2022-12-31T09:43:59.075Z,34.15
2022-12-31T09:46:50.266Z,21.13
2022-12-31T09:49:46.524Z,22.90
2022-12-31T09:52:30.399Z,22.25
2022-12-31T09:55:35.649Z,31.88
2022-12-31T09:58:12.485Z,30.98
2022-12-31T10:00:58.894Z,20.98
2022-12-31T10:03:52.270Z,24.20
2022-12-31T10:06:25.136Z,19.30
2022-12-31T10:09:06.868Z,16.25
2022-12-31T10:11:50.722Z,18.77
2022-12-31T10:14:38.094Z,16.23
2022-12-31T10:17:41.244Z,20.15
2022-12-31T10:20:43.297Z,12.60
2022-12-31T10:23:37.357Z,13.60
2022-12-31T10:26:04.817Z,9.40
2022-12-31T10:28:44.700Z,8.93
2022-12-31T10:31:33.663Z,6.93
2022-12-31T10:34:31.648Z,10.23
2022-12-31T10:37:29.838Z,9.88
2022-12-31T10:40:09.329Z,7.50
2022-12-31T10:43:05.854Z,5.10
2022-12-31T10:46:01.415Z,8.45
2022-12-31T10:48:44.097Z,6.22
2022-12-31T10:51:54.518Z,8.05
2022-12-31T10:54:21.897Z,8.03
2022-12-31T10:57:33.954Z,5.20
2022-12-31T11:00:10.871Z,4.30
2022-12-31T11:02:38.630Z,6.43
2022-12-31T11:05:27.413Z,3.92
2022-12-31T11:08:17.142Z,4.03
2022-12-31T11:11:13.044Z,4.95
2022-12-31T11:14:22.016Z,3.95
2022-12-31T11:17:21.705Z,4.40
2022-12-31T11:20:16.952Z,3.97
2022-12-31T11:23:07.487Z,5.18
2022-12-31T11:26:05.081Z,2.33
2022-12-31T11:28:52.902Z,2.38
2022-12-31T11:31:23.560Z,3.88
2022-12-31T11:34:03.330Z,4.13
2022-12-31T11:36:44.457Z,5.05
2022-12-31T11:39:34.098Z,1.65
2022-12-31T11:42:20.858Z,0.65
2022-12-31T11:44:57.163Z,0.70
2022-12-31T11:47:56.535Z,2.30
2022-12-31T11:50:38.991Z,0.47
2022-12-31T11:53:39.729Z,3.60
2022-12-31T11:56:16.079Z,1.42
2022-12-31T11:58:53.720Z,2.40
2022-12-31T12:01:36.575Z,4.15
2022-12-31T12:04:04.301Z,3.13
2022-12-31T12:06:33.469Z,8.73
2022-12-31T12:09:06.494Z,12.45
2022-12-31T12:11:39.291Z,18.85
2022-12-31T12:14:44.225Z,18.63
2022-12-31T12:17:19.774Z,25.52
2022-12-31T12:19:54.486Z,18.92
2022-12-31T12:22:25.235Z,19.58
2022-12-31T12:27:29.986Z,23.65
2022-12-31T12:29:57.446Z,22.00
2022-12-31T12:32:27.334Z,21.00
2022-12-31T12:34:54.924Z,10.82
2022-12-31T12:37:33.345Z,18.30
2022-12-31T12:40:06.450Z,15.35
2022-12-31T12:42:34.103Z,21.77
2022-12-31T12:45:14.150Z,21.75
2022-12-31T12:47:44.288Z,16.30
2022-12-31T12:50:24.376Z,16.20
2022-12-31T12:53:12.889Z,14.90
2022-12-31T12:55:57.170Z,13.85
2022-12-31T12:58:50.203Z,17.23
2022-12-31T13:01:42.898Z,18.05
2022-12-31T13:04:41.608Z,15.82
2022-12-31T13:07:23.850Z,16.40
2022-12-31T13:10:29.200Z,17.67
2022-12-31T13:13:23.430Z,20.13
2022-12-31T13:16:25.785Z,23.20
2022-12-31T13:19:02.743Z,18.33
2022-12-31T13:21:57.959Z,22.98
2022-12-31T13:25:06.998Z,27.23
2022-12-31T13:27:37.279Z,23.90
2022-12-31T13:30:18.287Z,25.83
2022-12-31T13:35:42.901Z,27.10
2022-12-31T13:38:31.695Z,17.75
2022-12-31T13:41:21.571Z,23.83
2022-12-31T13:44:21.338Z,24.73
2022-12-31T13:47:02.741Z,27.20
2022-12-31T13:49:39.948Z,26.67
2022-12-31T13:52:28.459Z,25.60
2022-12-31T13:55:22.819Z,17.52
2022-12-31T13:58:01.611Z,24.75
2022-12-31T14:00:44.189Z,20.52
2022-12-31T14:03:23.604Z,27.98
2022-12-31T14:06:05.196Z,24.33
2022-12-31T14:08:32.801Z,17.98
2022-12-31T14:11:18.585Z,19.35
2022-12-31T14:14:10.439Z,21.38
2022-12-31T14:16:54.958Z,18.48
2022-12-31T14:19:44.096Z,18.45
2022-12-31T14:22:17.653Z,22.73
2022-12-31T14:24:46.363Z,30.35
2022-12-31T14:27:22.987Z,24.70
2022-12-31T14:30:00.128Z,24.70
2022-12-31T14:32:42.926Z,28.13
2022-12-31T14:35:31.389Z,28.33
2022-12-31T14:38:32.812Z,32.33
2022-12-31T14:41:26.516Z,33.30
2022-12-31T14:44:18.650Z,33.85
2022-12-31T14:47:23.890Z,43.95
2022-12-31T14:50:05.136Z,48.42
2022-12-31T14:52:35.933Z,38.45
2022-12-31T14:55:23.815Z,47.15
2022-12-31T15:00:40.047Z,37.40
2022-12-31T15:03:16.455Z,51.63
2022-12-31T15:06:01.078Z,46.17
2022-12-31T15:08:59.933Z,47.35
2022-12-31T15:11:46.737Z,45.90
2022-12-31T15:14:51.359Z,43.83
2022-12-31T15:17:31.295Z,50.25
2022-12-31T15:20:18.120Z,60.60
2022-12-31T15:22:47.876Z,46.28
2022-12-31T15:25:24.606Z,55.50
2022-12-31T15:27:53.986Z,53.65
2022-12-31T15:30:46.360Z,64.85
2022-12-31T15:33:27.197Z,61.40
2022-12-31T15:35:57.005Z,54.17
2022-12-31T15:38:37.094Z,47.38
2022-12-31T15:44:54.091Z,55.35
2022-12-31T15:47:36.534Z,59.03
2022-12-31T15:50:18.805Z,43.92
2022-12-31T15:52:49.998Z,77.07
2022-12-31T15:55:22.318Z,49.40
2022-12-31T15:57:50.935Z,60.58
2022-12-31T16:00:21.500Z,46.13
2022-12-31T16:02:52.862Z,57.55
2022-12-31T16:05:26.490Z,50.08
2022-12-31T16:07:59.182Z,47.22
2022-12-31T16:10:32.097Z,44.65
2022-12-31T16:13:00.441Z,56.92
2022-12-31T16:15:31.513Z,46.25
2022-12-31T16:18:20.603Z,45.63
2022-12-31T16:20:52.076Z,48.35
2022-12-31T16:23:25.538Z,47.10
2022-12-31T16:25:58.408Z,45.70
2022-12-31T16:28:31.802Z,44.30
2022-12-31T16:31:04.514Z,48.75
2022-12-31T16:33:32.759Z,50.05
2022-12-31T16:36:01.715Z,51.50
2022-12-31T16:38:36.857Z,53.85
2022-12-31T16:41:20.962Z,57.95
2022-12-31T16:43:50.687Z,43.67
2022-12-31T16:46:28.460Z,42.00
2022-12-31T16:49:03.093Z,37.75
2022-12-31T16:51:32.490Z,41.65
2022-12-31T16:54:02.258Z,43.33
2022-12-31T16:56:36.408Z,52.05
2022-12-31T16:59:14.280Z,48.28
2022-12-31T17:01:42.598Z,63.67
2022-12-31T17:04:12.123Z,40.15
2022-12-31T17:06:39.791Z,42.92
2022-12-31T17:09:22.231Z,39.55
2022-12-31T17:12:15.823Z,54.08
2022-12-31T17:14:51.113Z,40.67
2022-12-31T17:17:25.613Z,54.50
2022-12-31T17:19:59.573Z,57.78
2022-12-31T17:22:41.948Z,50.17
2022-12-31T17:25:21.941Z,47.92
2022-12-31T17:27:58.344Z,49.15
2022-12-31T17:30:32.781Z,40.85
2022-12-31T17:33:04.010Z,47.60
2022-12-31T17:35:31.566Z,45.47
2022-12-31T17:38:18.184Z,51.13
2022-12-31T17:40:51.860Z,46.97
2022-12-31T17:43:21.913Z,46.42
2022-12-31T17:45:54.308Z,42.83
2022-12-31T17:48:24.733Z,46.33
2022-12-31T17:51:00.377Z,37.05
2022-12-31T17:53:28.056Z,38.60
2022-12-31T17:56:00.750Z,44.85
2022-12-31T17:58:33.618Z,53.35
2022-12-31T18:01:05.446Z,49.20
2022-12-31T18:03:33.107Z,51.20
2022-12-31T18:06:00.589Z,40.80
2022-12-31T18:08:28.053Z,52.85
2022-12-31T18:10:55.660Z,43.42
2022-12-31T18:13:25.222Z,57.38
2022-12-31T18:15:54.178Z,52.70
2022-12-31T18:18:26.503Z,55.97
2022-12-31T18:21:17.803Z,56.35
2022-12-31T18:23:47.440Z,44.50
2022-12-31T18:26:20.767Z,49.28
2022-12-31T18:28:49.443Z,45.88
2022-12-31T18:31:24.010Z,51.42
2022-12-31T18:33:53.730Z,51.50
2022-12-31T18:36:22.861Z,48.85
2022-12-31T18:38:51.105Z,55.05
2022-12-31T18:41:21.485Z,44.42
2022-12-31T18:43:49.509Z,44.13
2022-12-31T18:46:19.587Z,50.65
2022-12-31T18:48:47.915Z,43.07
2022-12-31T18:51:31.123Z,48.15
2022-12-31T18:54:03.638Z,63.30
2022-12-31T18:56:31.716Z,47.63
2022-12-31T18:59:00.146Z,53.55
2022-12-31T19:01:36.803Z,64.10
2022-12-31T19:04:19.941Z,41.35
2022-12-31T19:06:50.640Z,57.85
2022-12-31T19:09:43.854Z,53.90
2022-12-31T19:12:06.120Z,53.22
2022-12-31T19:14:33.722Z,48.92
2022-12-31T19:19:27.911Z,43.05
2022-12-31T19:21:55.480Z,58.22
2022-12-31T19:24:26.564Z,58.38
2022-12-31T19:26:55.007Z,40.55
2022-12-31T19:29:25.080Z,40.53
2022-12-31T19:31:53.288Z,58.70
2022-12-31T19:34:21.174Z,54.03
2022-12-31T19:36:48.877Z,48.20
2022-12-31T19:39:20.263Z,53.40
2022-12-31T19:41:54.731Z,49.00
2022-12-31T19:44:26.481Z,55.47
2022-12-31T19:46:54.254Z,48.03
2022-12-31T19:49:22.249Z,44.30
2022-12-31T19:51:49.818Z,44.63
2022-12-31T19:54:17.319Z,48.85
2022-12-31T19:56:44.692Z,51.47
2022-12-31T19:59:12.193Z,51.25
2022-12-31T20:01:39.668Z,53.65
2022-12-31T20:04:07.349Z,48.30
2022-12-31T20:06:34.971Z,47.28
2022-12-31T20:09:03.136Z,63.58
2022-12-31T20:11:30.658Z,45.38
2022-12-31T20:13:58.477Z,39.38
2022-12-31T20:16:31.642Z,43.85
2022-12-31T20:18:59.523Z,48.35
2022-12-31T20:21:29.021Z,41.15
2022-12-31T20:23:56.751Z,43.95
2022-12-31T20:26:25.097Z,44.80
2022-12-31T20:28:53.088Z,45.53
2022-12-31T20:31:23.749Z,45.67
2022-12-31T20:33:53.627Z,45.28
2022-12-31T20:36:22.092Z,35.50
2022-12-31T20:38:50.249Z,38.88
2022-12-31T20:41:21.275Z,44.30
2022-12-31T20:46:23.880Z,39.00
2022-12-31T20:48:53.895Z,41.95
2022-12-31T20:51:22.580Z,42.97
2022-12-31T20:53:55.150Z,38.95
2022-12-31T20:56:24.153Z,50.42
2022-12-31T20:58:51.793Z,38.88
2022-12-31T21:01:20.057Z,36.80
2022-12-31T21:04:06.001Z,43.30
2022-12-31T21:06:35.792Z,35.67
2022-12-31T21:09:07.045Z,30.10
2022-12-31T21:11:53.509Z,35.17
2022-12-31T21:14:21.420Z,32.33
2022-12-31T21:16:48.995Z,34.20
2022-12-31T21:19:16.443Z,32.47
2022-12-31T21:21:44.193Z,30.80
2022-12-31T21:24:11.968Z,22.63
2022-12-31T21:26:39.551Z,20.27
2022-12-31T21:29:07.075Z,35.00
2022-12-31T21:31:34.657Z,28.52
2022-12-31T21:34:02.098Z,25.00
2022-12-31T21:36:29.589Z,25.20
2022-12-31T21:38:57.296Z,30.95
2022-12-31T21:41:43.151Z,30.13
2022-12-31T21:44:10.639Z,27.33
2022-12-31T21:46:38.578Z,27.20
2022-12-31T21:49:06.301Z,22.95
2022-12-31T21:51:54.053Z,30.25
2022-12-31T21:54:41.472Z,27.13
2022-12-31T21:57:09.124Z,32.40
2022-12-31T22:00:23.874Z,22.75
2022-12-31T22:03:01.091Z,28.35
2022-12-31T22:05:28.732Z,16.65
2022-12-31T22:07:56.396Z,20.40
2022-12-31T22:10:23.834Z,20.73
2022-12-31T22:12:51.346Z,16.88
2022-12-31T22:15:19.067Z,21.95
2022-12-31T22:17:46.871Z,23.25
2022-12-31T22:20:26.940Z,19.15
2022-12-31T22:22:55.697Z,16.48
2022-12-31T22:25:23.283Z,22.13
2022-12-31T22:28:19.335Z,16.45
2022-12-31T22:30:38.133Z,21.08
2022-12-31T22:33:05.844Z,21.38
2022-12-31T22:35:33.635Z,21.98
2022-12-31T22:38:08.124Z,20.10
2022-12-31T22:40:39.306Z,19.95
2022-12-31T22:43:06.930Z,16.77
2022-12-31T22:45:36.071Z,13.65
2022-12-31T22:48:03.825Z,13.07
2022-12-31T22:50:31.416Z,18.85
2022-12-31T22:52:58.812Z,20.88
2022-12-31T22:55:26.325Z,21.55
2022-12-31T22:57:53.872Z,9.60
2022-12-31T23:00:37.630Z,11.15
2022-12-31T23:03:05.143Z,13.27
2022-12-31T23:05:34.119Z,9.65
2022-12-31T23:08:07.961Z,15.07
2022-12-31T23:10:58.855Z,16.17
2022-12-31T23:13:50.922Z,13.48
2022-12-31T23:16:38.302Z,18.83
2022-12-31T23:19:25.685Z,13.75
2022-12-31T23:22:12.248Z,14.18
2022-12-31T23:24:40.045Z,14.88
2022-12-31T23:27:08.763Z,12.60
2022-12-31T23:29:45.965Z,18.55
2022-12-31T23:32:16.593Z,15.27
2022-12-31T23:34:45.808Z,15.93
2022-12-31T23:37:14.465Z,12.68
2022-12-31T23:39:42.454Z,13.82
2022-12-31T23:42:10.100Z,11.68
2022-12-31T23:44:37.555Z,10.50
2022-12-31T23:47:05.412Z,11.82
2022-12-31T23:49:32.985Z,13.20
2022-12-31T23:52:00.489Z,15.93
2022-12-31T23:54:28.551Z,15.40
2022-12-31T23:56:55.983Z,9.75
2022-12-31T23:59:23.477Z,11.27
